createdAt,value
2018-10-12T00:00:59.221Z,9.57
2018-10-12T00:03:29.205Z,9.67
2018-10-12T00:06:04.049Z,9.00
2018-10-12T00:08:38.016Z,9.30
2018-10-12T00:11:11.204Z,9.17
2018-10-12T00:13:44.391Z,7.80
2018-10-12T00:16:13.539Z,8.23
2018-10-12T00:18:45.198Z,8.90
2018-10-12T00:21:15.017Z,8.27
2018-10-12T00:23:46.291Z,7.97
2018-10-12T00:26:15.727Z,7.83
2018-10-12T00:28:48.268Z,8.20
2018-10-12T00:31:17.519Z,9.53
2018-10-12T00:33:52.277Z,8.90
2018-10-12T00:36:21.327Z,7.83
2018-10-12T00:38:52.202Z,8.13
2018-10-12T00:41:21.297Z,8.50
2018-10-12T00:43:51.572Z,7.03
2018-10-12T00:46:24.231Z,6.80
2018-10-12T00:48:55.624Z,7.17
2018-10-12T00:51:24.931Z,8.33
2018-10-12T00:53:55.378Z,8.23
2018-10-12T00:56:26.242Z,8.63
2018-10-12T00:59:00.029Z,7.70
2018-10-12T01:01:31.652Z,8.70
2018-10-12T01:04:09.277Z,8.33
2018-10-12T01:06:42.463Z,8.97
2018-10-12T01:09:14.332Z,9.70
2018-10-12T01:11:44.236Z,8.63
2018-10-12T01:14:18.311Z,9.40
2018-10-12T01:16:47.701Z,10.00
2018-10-12T01:19:22.676Z,8.50
2018-10-12T01:21:52.060Z,9.60
2018-10-12T01:24:20.974Z,10.03
2018-10-12T01:26:51.079Z,9.50
2018-10-12T01:29:25.137Z,9.33
2018-10-12T01:31:57.632Z,8.80
2018-10-12T01:34:30.277Z,9.77
2018-10-12T01:37:01.665Z,9.90
2018-10-12T01:39:32.731Z,8.13
2018-10-12T01:42:03.244Z,9.60
2018-10-12T01:44:37.416Z,10.07
2018-10-12T01:47:06.515Z,9.67
2018-10-12T01:49:38.581Z,9.33
2018-10-12T01:52:10.565Z,9.83
2018-10-12T01:54:39.779Z,9.30
2018-10-12T01:57:11.212Z,8.60
2018-10-12T01:59:43.394Z,9.30
2018-10-12T02:02:15.413Z,8.90
2018-10-12T02:04:45.535Z,8.23
2018-10-12T02:07:17.873Z,9.20
2018-10-12T02:09:50.952Z,8.20
2018-10-12T02:12:23.934Z,8.30
2018-10-12T02:14:55.977Z,8.70
2018-10-12T02:17:25.354Z,7.13
2018-10-12T02:19:57.464Z,7.93
2018-10-12T02:22:28.666Z,7.97
2018-10-12T02:25:01.606Z,7.87
2018-10-12T02:27:35.010Z,6.70
2018-10-12T02:30:09.543Z,7.07
2018-10-12T02:32:39.605Z,6.17
2018-10-12T02:35:08.453Z,6.90
2018-10-12T02:37:38.421Z,7.30
2018-10-12T02:40:07.457Z,6.60
2018-10-12T02:42:36.252Z,8.00
2018-10-12T02:45:05.459Z,6.63
2018-10-12T02:47:37.442Z,7.10
2018-10-12T02:50:11.101Z,7.43
2018-10-12T02:52:40.529Z,7.17
2018-10-12T02:55:09.788Z,5.30
2018-10-12T02:57:42.315Z,5.13
2018-10-12T03:00:28.815Z,5.87
2018-10-12T03:02:57.383Z,6.50
2018-10-12T03:05:26.519Z,6.17
2018-10-12T03:07:57.260Z,4.97
2018-10-12T03:10:26.226Z,5.10
2018-10-12T03:12:57.072Z,5.03
2018-10-12T03:15:25.568Z,4.30
2018-10-12T03:17:54.090Z,4.20
2018-10-12T03:20:23.032Z,4.60
2018-10-12T03:22:51.601Z,4.27
2018-10-12T03:25:20.583Z,4.87
2018-10-12T03:28:01.728Z,4.70
2018-10-12T03:30:31.920Z,4.27
2018-10-12T03:33:00.602Z,4.43
2018-10-12T03:35:30.707Z,3.93
2018-10-12T03:38:01.131Z,3.50
2018-10-12T03:40:29.727Z,4.20
2018-10-12T03:42:58.380Z,4.57
2018-10-12T03:45:28.888Z,4.00
2018-10-12T03:47:57.464Z,5.57
2018-10-12T03:50:26.207Z,4.93
2018-10-12T03:52:54.992Z,5.40
2018-10-12T03:55:25.054Z,5.30
2018-10-12T03:57:54.157Z,4.90
2018-10-12T04:00:22.670Z,4.67
2018-10-12T04:02:51.689Z,4.43
2018-10-12T04:05:21.534Z,4.40
2018-10-12T04:07:50.497Z,4.27
2018-10-12T04:10:19.835Z,4.50
2018-10-12T04:12:48.482Z,5.57
2018-10-12T04:15:17.140Z,4.70
2018-10-12T04:17:47.744Z,4.67
2018-10-12T04:20:17.804Z,6.13
2018-10-12T04:22:46.369Z,5.43
2018-10-12T04:25:15.339Z,5.80
2018-10-12T04:27:44.788Z,5.80
2018-10-12T04:30:13.780Z,6.00
2018-10-12T04:32:44.017Z,5.90
2018-10-12T04:35:12.552Z,5.17
2018-10-12T04:37:41.989Z,5.33
2018-10-12T04:40:20.349Z,5.70
2018-10-12T04:42:49.526Z,5.83
2018-10-12T04:45:18.703Z,5.17
2018-10-12T04:47:47.659Z,6.83
2018-10-12T04:50:16.285Z,5.63
2018-10-12T04:52:44.835Z,6.27
2018-10-12T04:55:13.400Z,6.20
2018-10-12T04:57:42.909Z,6.13
2018-10-12T05:00:11.636Z,6.03
2018-10-12T05:02:40.199Z,5.13
2018-10-12T05:05:08.717Z,5.50
2018-10-12T05:07:37.422Z,6.80
2018-10-12T05:10:06.294Z,6.80
2018-10-12T05:12:35.096Z,5.83
2018-10-12T05:15:03.576Z,6.67
2018-10-12T05:17:32.427Z,7.60
2018-10-12T05:20:01.754Z,7.07
2018-10-12T05:22:30.366Z,7.70
2018-10-12T05:24:58.951Z,7.20
2018-10-12T05:27:27.566Z,7.40
2018-10-12T05:29:56.060Z,6.53
2018-10-12T05:32:24.978Z,6.97
2018-10-12T05:34:54.134Z,6.90
2018-10-12T05:37:22.724Z,6.73
2018-10-12T05:39:51.579Z,5.93
2018-10-12T05:42:20.116Z,6.87
2018-10-12T05:44:48.628Z,7.00
2018-10-12T05:47:17.209Z,6.60
2018-10-12T05:49:54.271Z,6.67
2018-10-12T05:52:22.890Z,6.73
2018-10-12T05:54:51.499Z,6.17
2018-10-12T05:57:20.101Z,7.90
2018-10-12T05:59:48.796Z,6.63
2018-10-12T06:02:17.408Z,6.33
2018-10-12T06:04:46.261Z,7.40
2018-10-12T06:07:14.822Z,6.60
2018-10-12T06:09:43.537Z,5.83
2018-10-12T06:12:11.909Z,7.83
2018-10-12T06:14:40.432Z,6.53
2018-10-12T06:17:08.931Z,6.40
2018-10-12T06:19:37.496Z,6.03
2018-10-12T06:22:06.020Z,6.07
2018-10-12T06:24:34.561Z,6.40
2018-10-12T06:27:03.060Z,6.93
2018-10-12T06:29:31.715Z,6.60
2018-10-12T06:32:00.608Z,6.90
2018-10-12T06:34:29.121Z,7.07
2018-10-12T06:36:57.793Z,6.50
2018-10-12T06:39:26.392Z,5.73
2018-10-12T06:41:54.975Z,6.20
2018-10-12T06:44:23.459Z,6.23
2018-10-12T06:46:51.972Z,5.83
2018-10-12T06:49:20.448Z,4.80
2018-10-12T06:51:48.977Z,4.90
2018-10-12T06:54:17.443Z,4.20
2018-10-12T06:56:47.306Z,3.00
2018-10-12T06:59:16.312Z,2.47
2018-10-12T07:01:44.815Z,2.83
2018-10-12T07:04:13.284Z,2.93
2018-10-12T07:06:41.767Z,3.00
2018-10-12T07:09:11.540Z,3.20
2018-10-12T07:11:40.084Z,3.13
2018-10-12T07:14:09.039Z,3.17
2018-10-12T07:16:37.269Z,3.10
2018-10-12T07:19:05.812Z,2.30
2018-10-12T07:21:34.297Z,2.80
2018-10-12T07:24:02.803Z,1.90
2018-10-12T07:26:31.274Z,2.50
2018-10-12T07:29:00.038Z,2.20
2018-10-12T07:31:28.594Z,2.10
2018-10-12T07:33:57.010Z,2.87
2018-10-12T07:36:25.472Z,2.83
2018-10-12T07:38:53.927Z,2.10
2018-10-12T07:41:22.484Z,1.93
2018-10-12T07:43:51.021Z,2.63
2018-10-12T07:46:19.508Z,2.33
2018-10-12T07:48:48.339Z,2.23
2018-10-12T07:51:16.804Z,2.47
2018-10-12T07:53:45.292Z,2.50
2018-10-12T07:56:13.742Z,2.03
2018-10-12T07:58:42.204Z,1.90
2018-10-12T08:01:10.772Z,2.50
2018-10-12T08:03:39.279Z,2.13
2018-10-12T08:06:07.765Z,1.70
2018-10-12T08:08:36.316Z,2.17
2018-10-12T08:11:04.856Z,1.80
2018-10-12T08:13:33.415Z,1.90
2018-10-12T08:16:01.995Z,1.53
2018-10-12T08:18:30.491Z,1.43
2018-10-12T08:20:58.991Z,1.50
2018-10-12T08:23:27.472Z,1.60
2018-10-12T08:25:55.970Z,2.00
2018-10-12T08:28:24.412Z,1.97
2018-10-12T08:30:52.940Z,1.20
2018-10-12T08:33:21.544Z,1.60
2018-10-12T08:35:50.098Z,1.77
2018-10-12T08:38:18.633Z,1.63
2018-10-12T08:40:47.123Z,1.77
2018-10-12T08:43:15.657Z,1.60
2018-10-12T08:45:44.169Z,2.73
2018-10-12T08:48:12.715Z,2.30
2018-10-12T08:50:42.087Z,1.70
2018-10-12T08:53:10.572Z,1.40
2018-10-12T08:55:39.125Z,1.50
2018-10-12T08:58:07.620Z,2.07
2018-10-12T09:00:36.116Z,1.10
2018-10-12T09:03:04.627Z,1.00
2018-10-12T09:05:33.155Z,1.40
2018-10-12T09:08:01.652Z,1.47
2018-10-12T09:10:30.137Z,1.73
2018-10-12T09:12:58.679Z,2.00
2018-10-12T09:15:27.166Z,1.43
2018-10-12T09:17:55.687Z,1.27
2018-10-12T09:20:24.275Z,1.50
2018-10-12T09:22:52.679Z,1.40
2018-10-12T09:25:21.263Z,1.10
2018-10-12T09:27:49.848Z,1.27
2018-10-12T09:30:18.646Z,1.70
2018-10-12T09:32:47.410Z,1.53
2018-10-12T09:35:16.419Z,1.33
2018-10-12T09:37:45.857Z,1.33
2018-10-12T09:40:14.380Z,1.70
2018-10-12T09:42:42.959Z,1.57
2018-10-12T09:45:12.891Z,1.60
2018-10-12T09:47:41.442Z,1.80
2018-10-12T09:50:10.201Z,1.73
2018-10-12T09:52:38.811Z,1.50
2018-10-12T09:55:07.437Z,1.80
2018-10-12T09:57:37.020Z,1.70
2018-10-12T10:00:12.728Z,1.83
2018-10-12T10:02:48.473Z,1.83
2018-10-12T10:05:17.267Z,1.40
2018-10-12T10:07:45.875Z,1.63
2018-10-12T10:10:14.352Z,1.40
2018-10-12T10:12:42.907Z,1.83
2018-10-12T10:15:11.511Z,1.37
2018-10-12T10:17:40.044Z,1.70
2018-10-12T10:20:08.643Z,1.60
2018-10-12T10:22:37.190Z,1.47
2018-10-12T10:25:05.656Z,1.50
2018-10-12T10:27:34.099Z,1.63
2018-10-12T10:30:02.569Z,2.27
2018-10-12T10:32:31.050Z,1.93
2018-10-12T10:34:59.556Z,1.50
2018-10-12T10:37:28.026Z,1.90
2018-10-12T10:39:56.499Z,1.80
2018-10-12T10:42:25.032Z,1.97
2018-10-12T10:44:53.640Z,1.80
2018-10-12T10:47:23.275Z,1.87
2018-10-12T10:49:51.799Z,1.50
2018-10-12T10:52:20.375Z,1.70
2018-10-12T10:54:48.908Z,1.70
2018-10-12T10:57:17.360Z,1.40
2018-10-12T10:59:45.881Z,1.60
2018-10-12T11:02:14.428Z,1.50
2018-10-12T11:04:42.955Z,1.63
2018-10-12T11:07:11.566Z,2.07
2018-10-12T11:09:40.072Z,1.87
2018-10-12T11:12:08.599Z,1.93
2018-10-12T11:14:37.095Z,1.70
2018-10-12T11:17:05.652Z,1.80
2018-10-12T11:19:34.219Z,2.27
2018-10-12T11:22:02.660Z,1.67
2018-10-12T11:24:31.229Z,2.20
2018-10-12T11:27:00.047Z,2.07
2018-10-12T11:29:28.640Z,1.90
2018-10-12T11:31:57.226Z,2.23
2018-10-12T11:34:25.723Z,1.87
2018-10-12T11:36:54.302Z,1.87
2018-10-12T11:39:22.863Z,1.60
2018-10-12T11:41:51.429Z,1.80
2018-10-12T11:44:20.029Z,2.43
2018-10-12T11:46:48.607Z,1.80
2018-10-12T11:49:17.195Z,2.10
2018-10-12T11:51:45.743Z,2.30
2018-10-12T11:54:14.273Z,2.10
2018-10-12T11:56:42.984Z,2.57
2018-10-12T11:59:11.531Z,1.97
2018-10-12T12:01:40.228Z,2.67
2018-10-12T12:04:08.791Z,1.70
2018-10-12T12:06:37.384Z,1.97
2018-10-12T12:09:06.416Z,1.83
2018-10-12T12:11:34.879Z,2.07
2018-10-12T12:14:03.383Z,2.07
2018-10-12T12:16:31.850Z,2.10
2018-10-12T12:19:00.350Z,2.40
2018-10-12T12:21:29.073Z,2.70
2018-10-12T12:23:57.560Z,1.97
2018-10-12T12:26:26.057Z,2.23
2018-10-12T12:28:55.488Z,2.30
2018-10-12T12:31:23.967Z,2.60
2018-10-12T12:33:57.970Z,2.30
2018-10-12T12:36:26.795Z,2.50
2018-10-12T12:38:55.365Z,2.27
2018-10-12T12:41:23.922Z,2.13
2018-10-12T12:43:52.549Z,2.23
2018-10-12T12:46:21.105Z,1.57
2018-10-12T12:48:49.890Z,1.80
2018-10-12T12:51:18.163Z,1.97
2018-10-12T12:53:46.747Z,2.30
2018-10-12T12:56:15.259Z,1.83
2018-10-12T12:58:44.575Z,2.10
2018-10-12T13:01:14.208Z,2.37
2018-10-12T13:03:42.643Z,1.80
2018-10-12T13:06:11.170Z,1.67
2018-10-12T13:08:39.703Z,2.10
2018-10-12T13:11:08.336Z,1.87
2018-10-12T13:13:36.860Z,3.27
2018-10-12T13:16:05.400Z,3.33
2018-10-12T13:18:33.947Z,4.03
2018-10-12T13:21:02.508Z,3.43
2018-10-12T13:23:30.999Z,3.53
2018-10-12T13:25:59.618Z,3.90
2018-10-12T13:28:28.160Z,4.50
2018-10-12T13:30:56.677Z,3.50
2018-10-12T13:33:25.207Z,3.70
2018-10-12T13:35:53.699Z,3.03
2018-10-12T13:38:22.203Z,3.33
2018-10-12T13:40:50.640Z,3.27
2018-10-12T13:43:19.135Z,3.97
2018-10-12T13:45:47.919Z,3.43
2018-10-12T13:48:16.393Z,5.00
2018-10-12T13:50:44.877Z,4.90
2018-10-12T13:53:13.383Z,4.00
2018-10-12T13:55:42.718Z,4.57
2018-10-12T13:58:11.253Z,4.53
2018-10-12T14:00:39.764Z,5.00
2018-10-12T14:03:08.463Z,4.70
2018-10-12T14:05:37.008Z,5.30
2018-10-12T14:08:05.568Z,4.67
2018-10-12T14:10:34.074Z,4.30
2018-10-12T14:13:02.536Z,4.60
2018-10-12T14:15:31.487Z,5.37
2018-10-12T14:18:00.057Z,4.53
2018-10-12T14:20:28.483Z,6.20
2018-10-12T14:22:57.048Z,5.10
2018-10-12T14:25:25.532Z,4.70
2018-10-12T14:27:54.003Z,4.93
2018-10-12T14:30:22.691Z,4.93
2018-10-12T14:32:51.123Z,5.70
2018-10-12T14:35:19.599Z,5.60
2018-10-12T14:37:48.173Z,4.83
2018-10-12T14:40:16.653Z,4.80
2018-10-12T14:42:45.232Z,5.20
2018-10-12T14:45:13.695Z,4.40
2018-10-12T14:47:42.167Z,5.13
2018-10-12T14:50:10.639Z,5.80
2018-10-12T14:52:39.179Z,5.20
2018-10-12T14:55:08.006Z,5.70
2018-10-12T14:57:36.495Z,5.77
2018-10-12T15:00:05.964Z,5.13
2018-10-12T15:02:34.432Z,4.57
2018-10-12T15:05:02.921Z,4.33
2018-10-12T15:07:31.395Z,5.07
2018-10-12T15:09:59.989Z,5.60
2018-10-12T15:12:28.516Z,5.67
2018-10-12T15:15:08.136Z,4.73
2018-10-12T15:17:36.695Z,5.33
2018-10-12T15:20:05.267Z,5.10
2018-10-12T15:22:33.834Z,4.93
2018-10-12T15:25:02.353Z,4.90
2018-10-12T15:27:30.898Z,5.60
2018-10-12T15:29:59.500Z,5.10
2018-10-12T15:32:28.065Z,5.13
2018-10-12T15:34:56.668Z,4.80
2018-10-12T15:37:25.237Z,5.70
2018-10-12T15:39:53.807Z,5.40
2018-10-12T15:42:22.404Z,5.70
2018-10-12T15:44:50.973Z,5.97
2018-10-12T15:47:20.300Z,5.43
2018-10-12T15:49:48.865Z,5.77
2018-10-12T15:52:17.360Z,5.50
2018-10-12T15:54:45.861Z,5.13
2018-10-12T15:57:17.965Z,5.30
2018-10-12T15:59:47.802Z,4.93
2018-10-12T16:02:17.396Z,5.17
2018-10-12T16:04:46.347Z,5.40
2018-10-12T16:07:15.817Z,5.23
2018-10-12T16:09:45.782Z,5.30
2018-10-12T16:12:14.271Z,5.17
2018-10-12T16:14:42.788Z,5.80
2018-10-12T16:17:11.280Z,4.47
2018-10-12T16:19:39.748Z,5.47
2018-10-12T16:22:08.656Z,6.33
2018-10-12T16:24:37.172Z,5.37
2018-10-12T16:27:05.667Z,5.00
2018-10-12T16:29:34.105Z,5.43
2018-10-12T16:32:02.606Z,5.60
2018-10-12T16:34:31.249Z,5.53
2018-10-12T16:36:59.797Z,4.97
2018-10-12T16:39:28.377Z,5.27
2018-10-12T16:41:56.937Z,4.93
2018-10-12T16:44:25.430Z,5.20
2018-10-12T16:46:54.032Z,4.97
2018-10-12T16:49:22.820Z,4.57
2018-10-12T16:51:51.463Z,4.90
2018-10-12T16:54:19.956Z,4.90
2018-10-12T16:56:48.512Z,5.30
2018-10-12T16:59:16.959Z,5.30
2018-10-12T17:01:45.412Z,4.77
2018-10-12T17:04:14.034Z,5.97
2018-10-12T17:06:42.473Z,6.10
2018-10-12T17:09:10.961Z,5.03
2018-10-12T17:11:39.725Z,5.00
2018-10-12T17:14:08.376Z,5.27
2018-10-12T17:16:36.912Z,6.03
2018-10-12T17:19:05.870Z,5.13
2018-10-12T17:21:34.435Z,4.80
2018-10-12T17:24:03.163Z,5.73
2018-10-12T17:26:31.657Z,4.90
2018-10-12T17:29:00.219Z,5.10
2018-10-12T17:31:28.708Z,4.70
2018-10-12T17:33:57.206Z,5.43
2018-10-12T17:36:25.671Z,5.20
2018-10-12T17:38:54.261Z,5.43
2018-10-12T17:41:22.750Z,4.90
2018-10-12T17:43:51.231Z,5.17
2018-10-12T17:46:19.826Z,4.50
2018-10-12T17:48:48.282Z,4.50
2018-10-12T17:51:16.830Z,5.70
2018-10-12T17:53:45.357Z,5.67
2018-10-12T17:56:13.958Z,5.47
2018-10-12T17:58:42.456Z,4.97
2018-10-12T18:01:11.047Z,5.87
2018-10-12T18:03:40.557Z,5.50
2018-10-12T18:06:09.269Z,5.00
2018-10-12T18:08:37.799Z,4.87
2018-10-12T18:11:06.458Z,5.10
2018-10-12T18:13:34.946Z,5.23
2018-10-12T18:16:03.468Z,5.00
2018-10-12T18:18:31.978Z,5.40
2018-10-12T18:21:00.506Z,4.80
2018-10-12T18:23:29.056Z,5.23
2018-10-12T18:25:57.659Z,4.97
2018-10-12T18:28:26.101Z,5.67
2018-10-12T18:30:55.146Z,5.00
2018-10-12T18:33:23.647Z,5.70
2018-10-12T18:35:52.179Z,5.63
2018-10-12T18:38:20.830Z,5.83
2018-10-12T18:40:49.454Z,5.47
2018-10-12T18:43:18.157Z,5.77
2018-10-12T18:45:46.715Z,5.37
2018-10-12T18:48:15.271Z,5.67
2018-10-12T18:50:44.013Z,5.37
2018-10-12T18:53:12.652Z,5.20
2018-10-12T18:55:41.198Z,4.70
2018-10-12T18:58:09.843Z,5.80
2018-10-12T19:00:38.360Z,5.50
2018-10-12T19:03:07.058Z,5.27
2018-10-12T19:05:35.584Z,6.00
2018-10-12T19:08:04.090Z,5.20
2018-10-12T19:10:32.520Z,5.40
2018-10-12T19:13:01.021Z,6.87
2018-10-12T19:15:29.540Z,5.80
2018-10-12T19:17:57.991Z,5.47
2018-10-12T19:20:26.544Z,5.40
2018-10-12T19:22:55.132Z,6.13
2018-10-12T19:25:23.733Z,6.03
2018-10-12T19:27:52.256Z,5.53
2018-10-12T19:30:20.924Z,5.20
2018-10-12T19:32:49.452Z,5.27
2018-10-12T19:35:18.060Z,5.30
2018-10-12T19:37:46.509Z,5.37
2018-10-12T19:40:15.023Z,5.90
2018-10-12T19:42:43.474Z,5.17
2018-10-12T19:45:11.925Z,4.20
2018-10-12T19:47:40.403Z,4.43
2018-10-12T19:50:08.868Z,4.30
2018-10-12T19:52:37.448Z,5.50
2018-10-12T19:55:06.032Z,4.70
2018-10-12T19:57:34.562Z,4.90
2018-10-12T20:00:03.151Z,4.20
2018-10-12T20:02:31.823Z,4.07
2018-10-12T20:05:01.570Z,4.43
2018-10-12T20:07:37.723Z,4.43
2018-10-12T20:10:06.341Z,4.20
2018-10-12T20:12:34.869Z,4.20
2018-10-12T20:15:03.292Z,5.10
2018-10-12T20:17:31.775Z,4.10
2018-10-12T20:20:00.292Z,4.30
2018-10-12T20:22:28.748Z,4.20
2018-10-12T20:24:57.407Z,3.63
2018-10-12T20:27:25.885Z,3.70
2018-10-12T20:29:54.428Z,4.60
2018-10-12T20:32:22.930Z,4.77
2018-10-12T20:34:51.450Z,3.70
2018-10-12T20:37:19.881Z,4.73
2018-10-12T20:39:48.371Z,4.03
2018-10-12T20:42:17.083Z,4.73
2018-10-12T20:44:45.585Z,3.17
2018-10-12T20:47:14.118Z,4.50
2018-10-12T20:49:42.642Z,4.37
2018-10-12T20:52:11.131Z,5.17
2018-10-12T20:54:39.644Z,4.80
2018-10-12T20:57:08.460Z,4.43
2018-10-12T20:59:36.876Z,4.13
2018-10-12T21:02:05.383Z,3.70
2018-10-12T21:04:33.848Z,3.73
2018-10-12T21:07:02.316Z,3.70
2018-10-12T21:09:30.809Z,4.23
2018-10-12T21:11:59.897Z,3.10
2018-10-12T21:14:29.506Z,4.10
2018-10-12T21:16:59.293Z,3.60
2018-10-12T21:19:28.890Z,4.07
2018-10-12T21:21:57.610Z,4.03
2018-10-12T21:24:26.187Z,3.50
2018-10-12T21:26:54.757Z,3.10
2018-10-12T21:29:23.385Z,4.03
2018-10-12T21:31:51.968Z,3.40
2018-10-12T21:34:20.781Z,4.57
2018-10-12T21:36:49.368Z,3.90
2018-10-12T21:39:17.908Z,3.27
2018-10-12T21:41:46.555Z,3.20
2018-10-12T21:44:15.123Z,3.33
2018-10-12T21:46:43.804Z,3.50
2018-10-12T21:49:12.662Z,3.43
2018-10-12T21:51:41.140Z,3.10
2018-10-12T21:54:10.176Z,3.47
2018-10-12T21:56:38.813Z,2.90
2018-10-12T21:59:07.291Z,3.73
2018-10-12T22:01:35.772Z,2.90
2018-10-12T22:04:04.291Z,3.47
2018-10-12T22:06:32.805Z,3.83
2018-10-12T22:09:06.875Z,3.57
2018-10-12T22:11:35.369Z,4.00
2018-10-12T22:14:04.111Z,3.00
2018-10-12T22:16:32.556Z,3.23
2018-10-12T22:19:01.120Z,3.07
2018-10-12T22:21:29.615Z,2.90
2018-10-12T22:23:58.243Z,3.53
2018-10-12T22:26:26.748Z,2.53
2018-10-12T22:28:55.214Z,2.80
2018-10-12T22:31:23.716Z,2.93
2018-10-12T22:33:52.190Z,2.53
2018-10-12T22:36:20.657Z,3.57
2018-10-12T22:38:49.244Z,3.20
2018-10-12T22:41:17.802Z,3.70
2018-10-12T22:43:46.281Z,3.20
2018-10-12T22:46:14.804Z,2.67
2018-10-12T22:48:43.387Z,2.70
2018-10-12T22:51:11.900Z,2.57
2018-10-12T22:53:40.394Z,2.77
2018-10-12T22:56:08.880Z,2.60
2018-10-12T22:58:37.370Z,2.80
2018-10-12T23:01:05.912Z,2.67
2018-10-12T23:03:34.450Z,2.47
2018-10-12T23:06:02.903Z,2.37
2018-10-12T23:08:31.468Z,2.40
2018-10-12T23:16:39.140Z,2.83
2018-10-12T23:19:16.910Z,1.93
2018-10-12T23:21:45.524Z,2.67
2018-10-12T23:24:14.068Z,2.33
2018-10-12T23:26:42.769Z,2.03
2018-10-12T23:29:13.376Z,3.10
2018-10-12T23:31:41.904Z,2.67
2018-10-12T23:34:10.548Z,2.70
2018-10-12T23:36:41.206Z,2.43
2018-10-12T23:39:10.085Z,3.03
2018-10-12T23:41:38.627Z,2.47
2018-10-12T23:44:07.146Z,1.90
2018-10-12T23:46:35.676Z,2.00
2018-10-12T23:49:04.290Z,3.60
2018-10-12T23:51:32.979Z,2.20
2018-10-12T23:54:01.675Z,2.10
2018-10-12T23:56:30.196Z,2.53
2018-10-12T23:58:58.777Z,2.50
